Latest Weather Observations for Alice Springs Airport

IDD60801

Issued at 6:35 pm CST Tuesday 16 September 2014 (issued every 30 minutes, with the page automatically refreshed every 10 minutes)

About weather observations | Map of weather stations | Latest weather observations for NT | Other Formats
Station Details ID: 015590 Name: ALICE SPRINGS AIRPORT Lat: -23.80 Lon: 133.89 Height: 546.0 m
Data from the previous 72 hours. | See also: Recent months at Alice Springs Airport
Date/Time
CST
Temp
°C
App
Temp
°C
Dew
Point
Rel
Hum
%
Delta-T
°C
Wind Press
QNH
hPa
Press
MSL
hPa
Rain
since 9 am
mm
Dir
 
Spd
km/h
Gust
km/h
Spd
kts
Gust
kts
16/06:30pm 25.1 20.2 -0.5 18 12.0 E 15 19 8 10 1016.0 1014.1 0.0
16/06:00pm 26.6 21.2 -1.1 16 13.0 E 17 24 9 13 1015.6 1013.8 0.0
16/05:30pm 27.5 21.6 -2.0 14 13.7 E 19 28 10 15 1015.8 1014.0 0.0
16/05:00pm 27.8 22.0 -1.2 15 13.7 ESE 19 26 10 14 1016.1 1014.2 0.0
16/04:30pm 28.0 22.6 -1.6 14 13.9 ESE 17 26 9 14 1016.2 1014.3 0.0
16/04:00pm 28.0 22.6 -1.1 15 13.8 E 17 26 9 14 1016.1 1014.2 0.0
16/03:30pm 28.0 24.3 -0.3 16 13.6 E 9 20 5 11 1016.3 1014.4 0.0
16/03:00pm 27.7 23.7 0.2 16 13.3 NE 11 15 6 8 1016.7 1014.9 0.0
16/02:30pm 28.2 23.2 1.3 17 13.3 NE 17 32 9 17 1017.1 1015.3 0.0
16/02:00pm 27.0 21.1 -0.6 16 13.1 ENE 20 30 11 16 1017.5 1015.7 0.0
16/01:30pm 26.1 20.3 -0.3 17 12.5 E 20 32 11 17 1018.1 1016.2 0.0
16/01:00pm 26.0 19.9 0.3 18 12.3 ENE 22 33 12 18 1018.6 1016.8 0.0
16/12:30pm 25.6 19.9 0.6 19 12.0 E 20 30 11 16 1019.1 1017.3 0.0
16/12:00pm 24.3 18.3 1.2 22 11.1 E 22 32 12 17 1019.6 1017.8 0.0
16/11:30am 24.9 19.3 0.9 20 11.5 E 20 30 11 16 1020.2 1018.4 0.0
16/11:00am 23.3 17.3 1.0 23 10.6 E 22 32 12 17 1020.4 1018.6 0.0
16/10:30am 23.4 17.0 1.2 23 10.6 E 24 32 13 17 1020.8 1019.0 0.0
16/10:00am 21.8 14.7 1.2 25 9.7 E 28 35 15 19 1021.1 1019.3 0.0
16/09:30am 21.5 13.5 1.4 26 9.5 E 33 44 18 24 1021.1 1019.3 0.0
16/09:00am 20.1 13.0 1.5 29 8.7 E 28 35 15 19 1020.7 1018.9 0.0
16/08:30am 19.5 13.9 1.4 30 8.4 E 20 26 11 14 1020.5 1018.7 0.0
16/08:00am 18.2 14.1 0.1 29 8.1 ESE 11 17 6 9 1020.4 1018.6 0.0
16/07:30am 13.7 11.3 0.0 39 5.9 ESE 2 7 1 4 1020.0 1018.2 0.0
16/07:00am 10.3 6.9 -1.7 43 4.8 SSE 6 9 3 5 1019.9 1018.0 0.0
16/06:30am 9.3 6.4 -1.2 48 4.2 NNW 4 7 2 4 1019.5 1017.7 0.0
16/06:00am 10.1 6.1 -2.0 42 4.8 WNW 9 11 5 6 1019.6 1017.8 0.0
16/05:30am 11.0 6.6 -2.3 39 5.3 WNW 11 15 6 8 1019.2 1017.4 0.0
16/05:00am 9.4 6.3 -2.4 43 4.6 WNW 4 9 2 5 1018.9 1017.1 0.0
16/04:30am 10.7 6.4 -1.8 41 5.0 WNW 11 13 6 7 1018.4 1016.6 0.0
16/04:00am 10.8 7.4 -2.3 40 5.2 NNW 6 11 3 6 1018.2 1016.3 0.0
16/03:30am 11.3 8.5 -3.3 36 5.7 WSW 2 6 1 3 1018.1 1016.2 0.0
16/03:00am 11.6 9.0 -1.4 40 5.3 ESE 2 7 1 4 1018.0 1016.1 0.0
16/02:30am 11.8 8.5 -1.0 41 5.3 ESE 6 9 3 5 1018.0 1016.1 0.0
16/02:00am 12.7 10.1 -2.0 36 6.0 WNW 2 6 1 3 1018.2 1016.3 0.0
16/01:30am 13.2 11.1 -0.8 38 5.9 CALM 0 0 0 0 1018.3 1016.4 0.0
16/01:00am 14.6 11.3 -1.6 32 6.8 W 6 7 3 4 1018.5 1016.7 0.0
16/12:30am 15.8 11.7 -0.3 33 7.0 SE 11 13 6 7 1018.5 1016.7 0.0
16/12:00am 16.7 12.0 -1.5 29 7.8 ESE 13 13 7 7 1018.6 1016.8 0.0
 
Date/Time
CST
Temp
°C
App
Temp
°C
Dew
Point
Rel
Hum
%
Delta-T
°C
Wind Press
QNH
hPa
Press
MSL
hPa
Rain
since 9 am
mm
Dir
 
Spd
km/h
Gust
km/h
Spd
kts
Gust
kts
15/11:30pm 15.9 11.7 -3.9 25 8.0 WSW 9 17 5 9 1018.8 1017.0 0.0
15/11:00pm 16.3 14.2 -0.8 31 7.4 CALM 0 0 0 0 1018.4 1016.6 0.0
15/10:30pm 17.6 13.7 -1.3 27 8.2 E 9 13 5 7 1018.5 1016.7 0.0
15/10:00pm 19.8 15.9 -1.6 23 9.4 ESE 9 13 5 7 1018.4 1016.6 0.0
15/09:30pm 21.3 16.4 -3.8 18 10.7 ESE 13 15 7 8 1018.4 1016.6 0.0
15/09:00pm 21.6 16.6 -4.5 17 11.0 SE 13 15 7 8 1018.2 1016.3 0.0
15/08:30pm 23.2 17.6 -6.3 13 12.2 SE 15 19 8 10 1018.0 1016.1 0.0
15/08:00pm 22.2 16.4 -8.8 12 12.1 SSE 15 17 8 9 1017.4 1015.6 0.0
15/07:30pm 22.6 17.3 -7.5 13 12.1 SSE 13 17 7 9 1016.8 1015.0 0.0
15/07:00pm 24.7 20.0 -5.2 13 12.8 SE 11 11 6 6 1016.3 1014.4 0.0
15/06:30pm 26.7 21.7 -8.1 9 14.4 ESE 11 13 6 7 1015.8 1014.0 0.0
15/06:00pm 28.5 23.9 -8.2 8 15.4 E 9 15 5 8 1015.7 1013.9 0.0
15/05:30pm 29.4 24.0 -8.1 8 15.9 SE 13 20 7 11 1015.5 1013.7 0.0
15/05:00pm 30.0 26.1 -4.3 10 15.6 ESE 7 15 4 8 1015.3 1013.5 0.0
15/04:30pm 30.7 26.1 -12.6 5 17.2 SE 7 13 4 7 1015.4 1013.6 0.0
15/04:00pm 30.4 24.0 -7.0 8 16.3 ESE 19 26 10 14 1015.4 1013.6 0.0
15/03:30pm 30.6 25.6 -8.3 7 16.6 S 11 24 6 13 1015.6 1013.8 0.0
15/03:00pm 30.2 24.9 -12.5 5 16.9 WSW 11 22 6 12 1015.8 1014.0 0.0
15/02:30pm 29.6 23.5 -7.4 8 15.9 S 17 26 9 14 1016.3 1014.4 0.0
15/02:00pm 30.4 25.0 -13.3 5 17.1 E 11 17 6 9 1016.6 1014.7 0.0
15/01:30pm 29.8 24.4 -13.7 5 16.8 ESE 11 19 6 10 1017.1 1015.3 0.0
15/01:00pm 29.4 25.0 -10.4 7 16.2 ENE 7 15 4 8 1017.6 1015.8 0.0
15/12:30pm 29.2 24.4 -10.5 7 16.1 SE 9 17 5 9 1018.0 1016.1 0.0
15/12:00pm 28.0 23.7 -9.5 8 15.3 E 7 15 4 8 1018.6 1016.8 0.0
15/11:30am 27.5 23.3 -7.4 9 14.7 WNW 7 11 4 6 1019.1 1017.3 0.0
15/11:00am 26.3 22.2 -7.1 10 14.0 NNW 7 13 4 7 1019.3 1017.5 0.0
15/10:30am 26.6 22.4 -7.4 10 14.2 SE 7 11 4 6 1019.7 1017.9 0.0
15/10:00am 25.3 20.1 -10.1 9 13.9 S 11 17 6 9 1020.1 1018.3 0.0
15/09:30am 23.6 18.6 -8.7 11 12.8 SSW 11 17 6 9 1020.2 1018.4 0.0
15/09:00am 21.6 17.2 -9.6 11 11.9 W 7 9 4 5 1019.9 1018.0 0.0
15/08:30am 19.5 15.2 -8.7 14 10.7 NW 7 9 4 5 1019.6 1017.8 0.0
15/08:00am 16.5 12.2 -8.4 17 9.2 W 7 7 4 4 1019.2 1017.4 0.0
15/07:30am 13.9 9.3 -8.5 20 8.0 WSW 9 11 5 6 1018.7 1016.9 0.0
15/07:00am 10.5 5.9 -8.0 26 6.4 WNW 9 9 5 5 1018.2 1016.3 0.0
15/06:30am 9.2 5.0 -7.7 29 5.8 N 7 9 4 5 1017.7 1015.9 0.0
15/06:00am 9.2 6.4 -6.8 31 5.6 CALM 0 0 0 0 1017.5 1015.7 0.0
15/05:30am 9.9 6.4 -5.9 32 5.7 S 4 7 2 4 1017.0 1015.2 0.0
15/05:00am 8.7 3.9 -5.9 35 5.2 SW 11 15 6 8 1016.8 1015.0 0.0
15/04:30am 9.5 5.0 -6.6 31 5.7 SW 9 13 5 7 1016.4 1014.5 0.0
15/04:00am 11.1 8.0 -6.6 28 6.4 WNW 2 7 1 4 1016.2 1014.3 0.0
15/03:30am 10.5 7.9 -5.1 33 5.8 CALM 0 0 0 0 1016.1 1014.2 0.0
15/03:00am 11.9 9.3 -5.1 30 6.4 CALM 0 0 0 0 1016.4 1014.5 0.0
15/02:30am 11.4 7.9 -6.0 29 6.4 N 4 7 2 4 1016.7 1014.9 0.0
15/02:00am 12.5 7.8 -4.8 29 6.6 NNE 11 13 6 7 1017.0 1015.2 0.0
15/01:30am 13.0 8.2 -6.0 26 7.1 N 11 13 6 7 1017.3 1015.5 0.0
15/01:00am 13.9 9.4 -6.4 24 7.6 NW 9 11 5 6 1018.2 1016.3 0.0
15/12:30am 13.7 9.1 -8.4 21 7.9 WNW 9 9 5 5 1018.6 1016.8 0.0
15/12:00am 12.7 8.1 -7.6 23 7.3 WNW 9 11 5 6 1018.8 1017.0 0.0
 
Date/Time
CST
Temp
°C
App
Temp
°C
Dew
Point
Rel
Hum
%
Delta-T
°C
Wind Press
QNH
hPa
Press
MSL
hPa
Rain
since 9 am
mm
Dir
 
Spd
km/h
Gust
km/h
Spd
kts
Gust
kts
14/11:30pm 13.7 9.7 -5.9 25 7.4 NW 7 9 4 5 1018.9 1017.1 0.0
14/11:00pm 15.6 12.7 -7.5 19 8.6 CALM 0 0 0 0 1018.9 1017.1 0.0
14/10:30pm 16.7 12.9 -3.5 25 8.3 N 7 7 4 4 1018.9 1017.1 0.0
14/10:00pm 16.4 13.5 -7.6 18 9.0 CALM 0 0 0 0 1018.9 1017.1 0.0
14/09:30pm 18.3 14.3 -5.4 19 9.5 NNE 7 9 4 5 1019.0 1017.2 0.0
14/09:00pm 18.3 13.9 -5.4 19 9.5 ESE 9 9 5 5 1019.0 1017.2 0.0
14/08:30pm 19.2 14.9 -4.7 19 9.8 ESE 9 11 5 6 1018.6 1016.8 0.0
14/08:00pm 21.3 16.7 -7.4 14 11.4 ESE 9 11 5 6 1018.3 1016.4 0.0
14/07:30pm 21.6 16.8 -6.5 14 11.4 SE 11 11 6 6 1017.9 1016.0 0.0
14/07:00pm 22.4 17.5 -7.0 13 11.9 SE 11 13 6 7 1017.4 1015.6 0.0
14/06:30pm 24.6 19.7 -7.2 11 13.1 SE 11 17 6 9 1017.3 1015.5 0.0
14/06:00pm 27.4 21.0 -11.2 7 15.2 SE 17 26 9 14 1017.1 1015.3 0.0
14/05:30pm 28.3 22.4 -10.5 7 15.6 SE 15 24 8 13 1017.0 1015.2 0.0
14/05:00pm 28.8 23.4 -8.4 8 15.6 SSE 13 20 7 11 1016.8 1015.0 0.0
14/04:30pm 28.6 23.3 -7.8 9 15.4 E 13 20 7 11 1016.8 1015.0 0.0
14/04:00pm 29.1 22.6 -12.6 6 16.3 E 17 30 9 16 1016.9 1015.1 0.0
14/03:30pm 28.6 22.8 -9.2 8 15.6 ESE 15 24 8 13 1016.8 1015.0 0.0
14/03:00pm 28.4 22.1 -10.8 7 15.7 SSE 17 33 9 18 1017.0 1015.2 0.0
14/02:30pm 29.2 21.8 -13.1 5 16.4 ESE 22 32 12 17 1017.4 1015.6 0.0
14/02:00pm 28.1 21.5 -6.5 10 14.9 ESE 20 30 11 16 1017.7 1015.9 0.0
14/01:30pm 28.0 21.4 -9.5 8 15.3 E 19 30 10 16 1018.2 1016.3 0.0
14/01:00pm 28.2 23.1 -9.5 8 15.4 E 11 19 6 10 1018.7 1016.9 0.0
14/12:30pm 27.8 21.7 -8.2 9 15.0 ESE 17 32 9 17 1019.0 1017.2 0.0
14/12:00pm 28.0 21.9 -8.2 9 15.1 SE 17 26 9 14 1019.6 1017.8 0.0
14/11:30am 26.6 22.1 -6.8 10 14.1 NE 9 19 5 10 1020.2 1018.4 0.0
14/11:00am 26.1 21.0 -9.2 9 14.2 ESE 11 15 6 8 1020.6 1018.8 0.0
14/10:30am 25.0 21.0 -7.2 11 13.3 ENE 6 13 3 7 1020.8 1019.0 0.0
14/10:00am 25.0 20.7 -4.5 14 12.8 NE 9 15 5 8 1020.8 1019.0 0.0
14/09:30am 23.6 18.9 -4.7 15 12.1 NNE 11 17 6 9 1021.0 1019.2 0.0
14/09:00am 22.5 18.1 -6.2 14 11.8 ENE 9 13 5 7 1020.9 1019.1 0.0
14/08:30am 20.6 17.3 -4.6 18 10.5 NE 4 7 2 4 1020.8 1019.0 0.0
14/08:00am 16.4 14.0 -3.3 25 8.1 CALM 0 0 0 0 1020.7 1018.9 0.0
14/07:30am 12.1 8.4 -4.7 30 6.4 W 6 7 3 4 1020.5 1018.7 0.0
14/07:00am 8.8 4.8 -5.3 36 5.1 W 7 9 4 5 1020.2 1018.4 0.0
14/06:30am 9.9 5.8 -6.3 31 5.8 W 7 9 4 5 1019.9 1018.0 0.0
14/06:00am 8.3 5.6 -5.8 36 5.0 CALM 0 0 0 0 1019.5 1017.7 0.0
14/05:30am 7.4 3.6 -5.3 40 4.5 NNE 6 7 3 4 1019.2 1017.4 0.0
14/05:00am 10.0 5.6 -5.7 32 5.7 N 9 9 5 5 1019.1 1017.3 0.0
14/04:30am 10.4 6.1 -5.0 33 5.7 NNW 9 11 5 6 1019.4 1017.6 0.0
14/04:00am 9.8 5.0 -6.1 32 5.7 N 11 11 6 6 1019.7 1017.9 0.0
14/03:30am 10.7 5.8 -7.1 28 6.3 N 11 11 6 6 1020.0 1018.2 0.0
14/03:00am 10.8 6.2 -7.4 27 6.4 WNW 9 11 5 6 1020.5 1018.7 0.0
14/02:30am 10.4 5.4 -7.7 27 6.3 WNW 11 11 6 6 1020.8 1019.0 0.0
14/02:00am 10.8 5.8 -7.9 26 6.5 WNW 11 11 6 6 1020.8 1019.0 0.0
14/01:30am 10.6 6.0 -7.8 26 6.4 W 9 9 5 5 1021.1 1019.3 0.0
14/01:00am 10.6 6.4 -7.3 27 6.3 W 7 9 4 5 1021.1 1019.3 0.0
14/12:30am 12.5 9.7 -6.6 26 7.0 CALM 0 0 0 0 1021.3 1019.5 0.0
14/12:00am 13.4 10.7 -6.1 25 7.3 CALM 0 0 0 0 1021.2 1019.4 0.0
 
Date/Time
CST
Temp
°C
App
Temp
°C
Dew
Point
Rel
Hum
%
Delta-T
°C
Wind Press
QNH
hPa
Press
MSL
hPa
Rain
since 9 am
mm
Dir
 
Spd
km/h
Gust
km/h
Spd
kts
Gust
kts
13/11:30pm 12.2 8.3 -6.3 27 6.8 NE 6 7 3 4 1021.2 1019.4 0.0
13/11:00pm 14.5 10.7 -5.1 25 7.6 NE 6 7 3 4 1021.3 1019.5 0.0
13/10:30pm 14.1 11.4 -5.5 25 7.5 CALM 0 9 0 5 1021.3 1019.5 0.0
13/10:00pm 14.0 10.2 -5.3 26 7.4 ESE 6 13 3 7 1021.3 1019.5 0.0
13/09:30pm 15.3 11.4 -6.7 21 8.3 SE 6 7 3 4 1021.4 1019.6 0.0
13/09:00pm 16.0 11.8 -4.2 24 8.1 S 9 13 5 7 1021.1 1019.3 0.0
13/08:30pm 17.5 13.6 -6.4 19 9.3 E 6 7 3 4 1020.9 1019.1 0.0
13/08:00pm 19.2 14.5 -5.2 18 9.9 SE 11 13 6 7 1020.5 1018.7 0.0
13/07:30pm 21.0 16.3 -4.6 17 10.7 ESE 11 11 6 6 1020.3 1018.5 0.0
13/07:00pm 21.6 17.2 -6.0 15 11.3 ESE 9 9 5 5 1020.1 1018.3 0.0

Other Formats:

Comma delimited format used in spreadsheet applications
http://www.bom.gov.au/fwo/IDD60801/IDD60801.94326.axf

JavaScript Object Notation format (JSON) in row-major order
http://www.bom.gov.au/fwo/IDD60801/IDD60801.94326.json